• Join FlightAware (Why Join?)
  • Login
  • US Flag 
11:43AM EDT


 

Airport Tracker/Info


-or-


 

Live Flight TrackerFlight Track Log ✈ AAY891 ✈ 30-May-2014 ✈ KFWA - KPIE

Flight Track Log - Related Links

Times and Time Zones

All times are in EDT time to prevent confusion due to time zone crossing. See the AAY891 flight status page for this flight to view local times or setup timezone preferences in your user account.

Time Position Orientation Groundspeed Altitude Reporting Facility
EDT Latitude Longitude Course Direction KTS MPH feet Rate Location/Type
07:20PM 40.9478 -85.1017 97° East 233 268 3,900  Level Chicago Center
07:21PM 40.8817 -85.0597 154° Southeast 253 291 6,500 2,820 Climbing Chicago Center
07:22PM 40.8019 -84.9878 146° Southeast 283 326 9,800 2,160 Climbing Chicago Center
07:23PM 40.7264 -84.9286 149° Southeast 312 359 11,100 1,200 Climbing Chicago Center
07:24PM 40.6425 -84.8669 151° Southeast 354 407 12,300 1,500 Climbing Chicago Center
07:25PM 40.3120 -85.0454 146° Southeast  Level Estimated
07:25PM 40.5892 -84.8275 151° Southeast 377 434 13,500  Level Indianapolis Center
07:26PM 40.2973 -84.8989 97° East  Level FlightAware Approximate
07:26PM 40.4906 -84.7489 149° Southeast 406 467 15,600  Level Indianapolis Center
07:27PM 40.3878 -84.6711 150° Southeast 420 483 17,800 1,860 Climbing Indianapolis Center
07:28PM 40.2594 -84.5750 150° Southeast 437 503 19,500 1,560 Climbing Indianapolis Center
07:29PM 40.1478 -84.4944 151° Southeast 452 520 21,100 1,500 Climbing Indianapolis Center
07:30PM 40.0350 -84.4119 151° Southeast 462 532 22,600 1,440 Climbing Indianapolis Center
07:31PM 39.9042 -84.3856 171° South 479 551 24,100 1,620 Climbing Indianapolis Center
07:32PM 39.7714 -84.3778 177° South 479 551 26,000 1,620 Climbing Indianapolis Center
07:33PM 39.6414 -84.3764 180° South 478 550 27,500 1,620 Climbing Indianapolis Center
07:34PM 39.4869 -84.3672 177° South 470 541 29,400 1,500 Climbing Indianapolis Center
07:35PM 39.3603 -84.3539 175° South 465 535 30,600 720 Climbing Indianapolis Center
07:36PM 39.2353 -84.3433 176° South 458 527 31,000 180 Climbing Indianapolis Center
07:37PM 39.1050 -84.3369 178° South 463 533 31,000  Level Indianapolis Center
07:38PM 38.9778 -84.3328 179° South 463 533 31,000  Level Indianapolis Center
07:39PM 38.8492 -84.3256 177° South 463 533 31,000  Level Indianapolis Center
07:40PM 38.6981 -84.3103 175° South 460 529 31,000  Level Indianapolis Center
07:41PM 38.5789 -84.2972 175° South 460 529 31,000  Level Indianapolis Center
07:42PM 38.4522 -84.2803 174° South 460 529 31,000  Level Indianapolis Center
07:43PM 38.3033 -84.2550 172° South 459 528 31,000  Level Indianapolis Center
07:44PM 38.1764 -84.2333 172° South 460 529 31,000  Level Indianapolis Center
07:45PM 38.0483 -84.2150 174° South 460 529 31,000  Level Indianapolis Center
07:46PM 37.9186 -84.1969 174° South 464 534 31,000  Level Indianapolis Center
07:48PM 37.7872 -84.1781 174° South 469 540 31,000  Level Indianapolis Center
07:49PM 37.6356 -84.1531 173° South 470 541 31,000  Level Indianapolis Center
07:50PM 37.5064 -84.1328 173° South 470 541 31,000  Level Indianapolis Center
07:51PM 37.3772 -84.1125 173° South 470 541 31,100 480 Climbing Indianapolis Center
07:52PM 37.2492 -84.0942 173° South 467 537 32,000 480 Climbing Indianapolis Center
07:53PM 37.1211 -84.0750 173° South 465 535 32,200 420 Climbing Indianapolis Center
07:54PM 36.9919 -84.0553 173° South 465 535 32,900 360 Climbing Indianapolis Center
07:55PM 36.8422 -84.0336 173° South 465 535 33,000  Climbing Indianapolis Center
07:56PM 36.7131 -84.0136 173° South 466 536 33,000  Level Indianapolis Center
07:57PM 36.5844 -84.0111 179° South 466 536 33,000  Level Indianapolis Center
07:58PM 36.4639 -84.0297 187° South 465 535 33,000  Level Indianapolis Center
07:59PM 36.3369 -84.0539 189° South 465 535 33,000  Level Indianapolis Center
08:00PM 36.1844 -84.0753 186° South 460 529 33,000  Level Indianapolis Center
08:01PM 36.0569 -84.0906 186° South 460 529 33,000  Level Indianapolis Center
08:02PM 35.9297 -84.1069 186° South 460 529 33,000  Level Indianapolis Center
08:03PM 35.8022 -84.1269 187° South 459 528 33,000  Level Indianapolis Center
08:04PM 35.6744 -84.1469 187° South 459 528 33,000  Level Indianapolis Center
08:05PM 35.5483 -84.1658 187° South 458 527 33,000  Level Indianapolis Center
08:06PM 35.3739 -84.1917 187° South 462 532 33,000  Level Atlanta Center
08:07PM 35.2633 -84.2067 186° South 462 532 33,000  Level Atlanta Center
08:08PM 35.1361 -84.2267 187° South 462 532 33,000  Level Atlanta Center
08:09PM 35.0086 -84.2442 186° South 462 532 33,000  Level Atlanta Center
08:10PM 34.8836 -84.2592 186° South 462 532 33,000  Level Atlanta Center
08:11PM 34.7583 -84.2789 187° South 462 532 33,000  Level Atlanta Center
08:12PM 34.6331 -84.2964 187° South 462 532 33,000  Level Atlanta Center
08:13PM 34.5056 -84.3136 186° South 462 532 33,000  Level Atlanta Center
08:14PM 34.3825 -84.3333 188° South 462 532 33,000  Level Atlanta Center
08:15PM 34.2572 -84.3506 186° South 462 532 33,000  Level Atlanta Center
08:16PM 34.1111 -84.3700 186° South 473 544 33,000  Level Atlanta Center
08:17PM 33.9878 -84.3869 186° South 473 544 33,000  Level Atlanta Center
08:18PM 33.8606 -84.4042 186° South 466 536 33,000  Level Atlanta Center
08:19PM 33.7372 -84.4211 187° South 460 529 33,000  Level Atlanta Center
08:20PM 33.6036 -84.4353 185° South 468 539 33,000  Level Atlanta Center
08:21PM 33.4825 -84.4347 180° South 462 532 33,000  Level Atlanta Center
08:22PM 33.3594 -84.4292 178° South 457 526 33,000  Level Atlanta Center
08:23PM 33.2364 -84.4264 179° South 457 526 33,000  Level Atlanta Center
08:24PM 33.1111 -84.4258 180° South 452 520 33,000  Level Atlanta Center
08:25PM 32.9858 -84.4250 180° South 452 520 33,000  Level Atlanta Center
08:26PM 32.8628 -84.4222 179° South 452 520 33,000  Level Atlanta Center
08:27PM 32.7375 -84.4167 178° South 452 520 33,100  Climbing Atlanta Center
08:28PM 32.6103 -84.4186 181° South 452 520 33,000 -60 Descending Atlanta Center
08:29PM 32.4850 -84.3958 171° South 457 526 33,000  Level Atlanta Center
08:30PM 32.3619 -84.3658 168° South 457 526 33,000  Level Atlanta Center
08:31PM 32.2389 -84.3408 170° South 462 532 33,000  Level Atlanta Center
08:35PM 31.7719 -84.1486 161° South 454 522 33,000  Level Jacksonville Center
08:36PM 31.6469 -84.1322 174° South 454 522 33,000  Level Jacksonville Center
08:37PM 31.5175 -84.1208 176° South 459 528 33,000  Level Jacksonville Center
08:38PM 31.3903 -84.1047 174° South 459 528 33,000  Level Jacksonville Center
08:39PM 31.2653 -84.0858 173° South 459 528 33,000  Level Jacksonville Center
08:40PM 31.1483 -84.0675 172° South 466 536 33,000  Level Jacksonville Center
08:41PM 31.0192 -84.0514 174° South 466 536 33,000  Level Jacksonville Center
08:42PM 30.8897 -84.0353 174° South 466 536 33,000  Level Jacksonville Center
08:43PM 30.7625 -84.0192 174° South 466 536 33,000  Level Jacksonville Center
08:44PM 30.6356 -84.0008 173° South 461 531 33,000  Level Jacksonville Center
08:45PM 30.5019 -83.9822 173° South 461 531 33,000  Level Jacksonville Center
08:46PM 30.3747 -83.9664 174° South 456 525 33,000  Level Jacksonville Center
08:47PM 30.2497 -83.9217 163° South 456 525 33,000  Level Jacksonville Center
08:48PM 30.1311 -83.8725 160° South 456 525 33,000  Level Jacksonville Center
08:49PM 30.0106 -83.8208 160° South 462 532 33,000  Level Jacksonville Center
08:50PM 29.8856 -83.7742 162° South 462 532 33,000  Level Jacksonville Center
08:51PM 29.7606 -83.7275 162° South 467 537 33,000  Level Jacksonville Center
08:52PM 29.6356 -83.6786 161° South 467 537 33,000 -300 Level Jacksonville Center
08:53PM 29.5108 -83.6275 160° South 467 537 32,500 -1,500 Descending Jacksonville Center
08:54PM 29.3858 -83.5767 160° South 472 543 30,000 -2,460 Descending Jacksonville Center
08:55PM 29.2650 -83.5306 162° South 472 543 27,600 -2,280 Descending Jacksonville Center
08:56PM 29.1503 -83.4728 156° South 459 528 25,500 -1,920 Descending Jacksonville Center
08:57PM 29.0525 -83.4056 149° Southeast 431 496 23,800 -1,740 Descending Jacksonville Center
08:58PM 28.9631 -83.3436 149° Southeast 403 464 22,100 -1,680 Descending Jacksonville Center
08:59PM 28.8736 -83.2886 152° Southeast 383 441 20,500 -1,680 Descending Jacksonville Center
09:00PM 28.7944 -83.2408 152° Southeast 363 418 18,800 -1,680 Descending Jacksonville Center
09:01PM 28.7089 -83.1861 151° Southeast 357 411 17,200 -1,620 Descending Jacksonville Center
09:02PM 28.6297 -83.1361 151° Southeast 339 390 15,600 -1,620 Descending Jacksonville Center
09:03PM 28.5500 -83.0833 150° Southeast 322 371 14,100 -1,440 Descending Tampa TRACON
09:04PM 28.4667 -83.0333 152° Southeast 307 353 12,800 -1,620 Descending Tampa TRACON
09:05PM 28.4000 -82.9833 147° Southeast 301 346 10,900 -1,740 Descending Tampa TRACON
09:06PM 28.3453 -82.9403 145° Southeast 305 351 9,600 -1,560 Descending Miami Center
09:07PM 28.2808 -82.8842 143° Southeast 298 343 8,000 -1,560 Descending Miami Center
09:08PM 28.2200 -82.8303 142° Southeast 279 321 6,500 -1,560 Descending Miami Center
09:09PM 28.1661 -82.7831 142° Southeast 250 288 4,900 -1,560 Descending Miami Center
09:10PM 28.1164 -82.7394 142° Southeast 233 268 3,400 -1,320 Descending Miami Center
09:11PM 28.0500 -82.7167 163° South 192 221 2,200 -900 Descending Tampa TRACON
09:12PM 28.0000 -82.7000 164° South 152 175 1,600 -720 Descending Tampa TRACON
09:13PM 27.9667 -82.7000 180° South 132 152 700 -780 Descending Tampa TRACON